Time;durP1;ratioP1;P1;durP2;ratioP2;P2;SDS_P1;SDS_P2;PMS_P1;PMS_P2;Temp;Humidity;BMP_temperature;BMP_pressure;BME280_temperature;BME280_humidity;BME280_pressure;Samples;Min_cycle;Max_cycle;Signal;HPM_P1;HPM_P2
2022/12/25 00:00:53;;;;;;;22.52;6.40;;;5.50;99.90;;;;;;5076169;28;20120;-81
2022/12/25 00:03:18;;;;;;;14.57;5.68;;;5.40;99.90;;;;;;5069101;28;20025;-81
2022/12/25 00:05:44;;;;;;;17.75;5.90;;;5.40;99.90;;;;;;5077145;28;20028;-82
2022/12/25 00:08:09;;;;;;;20.00;5.38;;;5.40;99.90;;;;;;5078447;28;20020;-81
2022/12/25 00:10:35;;;;;;;18.77;6.00;;;5.40;99.90;;;;;;5077792;28;20071;-81
2022/12/25 00:13:01;;;;;;;29.60;5.82;;;5.30;99.90;;;;;;5083438;28;20025;-81
2022/12/25 00:15:26;;;;;;;15.93;5.30;;;5.20;99.90;;;;;;5083083;28;20443;-81
2022/12/25 00:17:52;;;;;;;22.30;5.78;;;5.10;99.90;;;;;;5076297;28;20016;-82
2022/12/25 00:20:17;;;;;;;21.60;7.35;;;5.10;99.90;;;;;;5082440;28;20055;-81
2022/12/25 00:22:43;;;;;;;17.67;6.25;;;5.00;99.90;;;;;;5083498;28;20092;-82
2022/12/25 00:25:11;;;;;;;15.38;5.60;;;5.00;99.90;;;;;;5072978;28;20024;-81
2022/12/25 00:27:37;;;;;;;18.73;5.20;;;4.90;99.90;;;;;;5072913;28;20032;-81
2022/12/25 00:30:06;;;;;;;14.10;5.18;;;4.90;99.90;;;;;;5071750;28;20033;-82
2022/12/25 00:32:35;;;;;;;25.52;5.88;;;4.80;99.90;;;;;;5072290;28;20028;-81
2022/12/25 00:35:01;;;;;;;17.65;5.00;;;4.80;99.90;;;;;;5074541;28;20416;-82
2022/12/25 00:37:26;;;;;;;29.38;6.63;;;4.80;99.90;;;;;;5084224;28;20020;-81
2022/12/25 00:39:52;;;;;;;18.77;6.38;;;4.80;99.90;;;;;;5075582;28;20027;-82
2022/12/25 00:42:17;;;;;;;22.83;6.75;;;4.70;99.90;;;;;;5073454;28;20354;-82
2022/12/25 00:44:44;;;;;;;28.05;6.22;;;4.80;99.90;;;;;;5073282;28;20604;-81
2022/12/25 00:47:09;;;;;;;27.73;6.57;;;4.70;99.90;;;;;;5079247;28;20365;-81
2022/12/25 00:49:35;;;;;;;21.33;6.53;;;4.70;99.90;;;;;;5077241;28;20024;-82
2022/12/25 00:52:01;;;;;;;24.58;7.90;;;4.80;99.90;;;;;;5075742;28;20028;-81
2022/12/25 00:54:26;;;;;;;24.15;6.40;;;4.80;99.90;;;;;;5076799;28;20288;-81
2022/12/25 00:56:52;;;;;;;24.08;6.47;;;4.70;99.90;;;;;;5076425;28;20020;-81
2022/12/25 00:59:18;;;;;;;21.92;6.45;;;4.70;99.90;;;;;;5076768;28;20045;-82
2022/12/25 01:01:43;;;;;;;26.23;7.10;;;4.70;99.90;;;;;;5074803;28;20087;-81
2022/12/25 01:04:10;;;;;;;17.85;5.93;;;4.70;99.90;;;;;;5076267;28;20028;-80
2022/12/25 01:06:35;;;;;;;32.70;7.30;;;4.70;99.90;;;;;;5075212;28;20469;-81
2022/12/25 01:11:45;;;;;;;33.83;7.50;;;4.70;99.90;;;;;;5073608;28;20023;-81
2022/12/25 01:14:11;;;;;;;36.38;7.38;;;4.70;99.90;;;;;;5074854;28;20032;-81
2022/12/25 01:16:36;;;;;;;35.65;6.95;;;4.70;99.90;;;;;;5079941;28;20422;-82
2022/12/25 01:19:03;;;;;;;19.08;6.05;;;4.70;99.90;;;;;;5072511;28;20024;-82
2022/12/25 01:21:29;;;;;;;27.33;6.72;;;4.80;99.90;;;;;;5074364;28;20473;-81
2022/12/25 01:23:54;;;;;;;22.88;5.53;;;4.80;99.90;;;;;;5073481;28;20086;-81
2022/12/25 01:26:21;;;;;;;29.63;8.20;;;4.80;99.90;;;;;;5072062;28;20029;-82
2022/12/25 01:28:48;;;;;;;27.75;7.80;;;4.90;99.90;;;;;;5083930;28;20031;-82
2022/12/25 01:31:17;;;;;;;23.00;7.10;;;4.90;99.90;;;;;;5081333;28;20111;-82
2022/12/25 01:33:43;;;;;;;22.90;5.88;;;5.00;99.90;;;;;;5080088;28;20500;-80
2022/12/25 01:36:16;;;;;;;26.40;6.30;;;5.10;99.90;;;;;;5081420;28;20028;-81
2022/12/25 01:38:43;;;;;;;24.85;5.70;;;5.10;99.90;;;;;;5080172;28;20519;-81
2022/12/25 01:41:10;;;;;;;13.68;5.85;;;5.10;99.90;;;;;;5081861;28;20067;-81
2022/12/25 01:43:57;;;;;;;19.48;5.68;;;5.10;99.90;;;;;;5081869;28;20020;-81
2022/12/25 01:46:22;;;;;;;21.90;5.82;;;5.10;99.90;;;;;;5080225;28;20039;-80
2022/12/25 01:48:49;;;;;;;18.02;6.00;;;5.20;99.90;;;;;;5081981;28;20365;-82
2022/12/25 01:51:32;;;;;;;11.50;5.00;;;5.20;99.90;;;;;;5082210;28;20033;-81
2022/12/25 01:54:02;;;;;;;19.15;5.82;;;5.20;99.90;;;;;;5081743;28;20024;-81
2022/12/25 01:56:28;;;;;;;22.98;5.45;;;5.20;99.90;;;;;;5078052;28;20094;-82
2022/12/25 01:58:56;;;;;;;18.92;5.57;;;5.20;99.90;;;;;;5072396;28;20391;-81
2022/12/25 02:01:21;;;;;;;19.25;6.22;;;5.10;99.90;;;;;;5074504;28;20078;-82
2022/12/25 02:03:57;;;;;;;20.10;4.93;;;5.00;99.90;;;;;;5069744;28;20485;-81
2022/12/25 02:06:23;;;;;;;12.77;4.65;;;5.00;99.90;;;;;;5067453;28;20480;-82
2022/12/25 02:08:49;;;;;;;12.57;4.60;;;5.00;99.90;;;;;;5079620;28;20028;-81
2022/12/25 02:11:55;;;;;;;26.52;6.22;;;5.00;99.90;;;;;;5071152;28;20032;-82
2022/12/25 02:14:00;;;;;;;13.32;4.60;;;5.00;99.90;;;;;;5070939;28;20125;-82
2022/12/25 02:16:33;;;;;;;18.33;4.80;;;4.90;99.90;;;;;;5077811;28;20077;-81
2022/12/25 02:19:10;;;;;;;18.05;4.60;;;4.90;99.90;;;;;;5052506;28;20035;-81
2022/12/25 02:21:46;;;;;;;15.73;4.80;;;4.80;99.90;;;;;;5072000;28;20056;-81
2022/12/25 02:24:40;;;;;;;18.75;4.90;;;4.80;99.90;;;;;;5071451;28;20024;-81
2022/12/25 02:27:21;;;;;;;22.25;6.00;;;4.70;99.90;;;;;;5079526;28;20020;-81
2022/12/25 02:30:01;;;;;;;20.67;4.70;;;4.60;99.90;;;;;;5076337;28;20103;-81
2022/12/25 02:32:29;;;;;;;17.40;4.43;;;4.60;99.90;;;;;;5065454;28;20150;-82
2022/12/25 02:35:18;;;;;;;22.30;5.22;;;4.60;99.90;;;;;;5072160;28;20035;-80
2022/12/25 02:37:59;;;;;;;16.40;4.30;;;4.50;99.90;;;;;;5069321;28;20032;-81
2022/12/25 02:40:34;;;;;;;14.90;4.45;;;4.50;99.90;;;;;;5060845;28;20457;-82
2022/12/25 03:08:29;;;;;;;10.05;4.38;;;4.50;99.90;;;;;;5072582;28;20079;-82
2022/12/25 03:13:51;;;;;;;12.70;4.30;;;4.60;99.90;;;;;;5073767;28;20113;-82
2022/12/25 03:26:53;;;;;;;26.58;6.55;;;4.70;99.90;;;;;;5078514;28;20047;-82
2022/12/25 03:27:16;;;;;;;18.98;5.35;;;4.80;99.90;;;;;;5085156;28;20027;-82
2022/12/25 03:32:49;;;;;;;29.05;10.63;;;4.80;99.90;;;;;;5076642;28;20039;-81
2022/12/25 03:35:47;;;;;;;25.88;10.48;;;4.80;99.90;;;;;;5076159;28;20081;-82
2022/12/25 04:37:00;;;;;;;18.33;4.82;;;5.60;99.90;;;;;;5064684;28;20116;-81
2022/12/25 04:39:26;;;;;;;28.55;7.07;;;5.60;99.90;;;;;;5078979;28;20465;-81
2022/12/25 04:41:51;;;;;;;26.80;5.95;;;5.70;99.90;;;;;;5071468;28;20469;-82
2022/12/25 04:44:20;;;;;;;25.10;5.57;;;5.70;99.90;;;;;;5069447;28;20017;-80
2022/12/25 04:46:45;;;;;;;30.45;6.55;;;5.80;99.90;;;;;;5070682;28;20067;-82
2022/12/25 04:49:11;;;;;;;42.75;9.40;;;5.80;99.90;;;;;;5083816;28;20048;-81
2022/12/25 04:51:37;;;;;;;42.05;10.10;;;6.00;99.90;;;;;;5082389;28;20028;-82
2022/12/25 04:54:02;;;;;;;37.38;8.77;;;6.10;99.90;;;;;;5086650;28;20031;-81
2022/12/25 04:56:28;;;;;;;36.25;9.95;;;6.30;99.90;;;;;;5085484;28;20020;-81
2022/12/25 04:58:55;;;;;;;39.83;11.00;;;6.40;99.90;;;;;;5078852;28;20513;-81
2022/12/25 05:01:20;;;;;;;38.97;9.30;;;6.50;99.90;;;;;;5074235;28;20040;-82
2022/12/25 05:03:46;;;;;;;34.55;9.02;;;6.60;99.90;;;;;;5075473;28;20024;-82
2022/12/25 05:06:11;;;;;;;33.00;7.72;;;6.70;99.90;;;;;;5070871;28;20016;-82
2022/12/25 05:08:37;;;;;;;27.73;7.00;;;6.80;99.90;;;;;;5074527;28;20051;-82
2022/12/25 05:11:12;;;;;;;35.35;8.27;;;6.80;99.90;;;;;;5071196;28;20111;-82
2022/12/25 05:13:38;;;;;;;35.42;8.15;;;6.90;99.90;;;;;;5070108;28;20025;-81
2022/12/25 05:16:05;;;;;;;26.10;6.57;;;6.90;99.90;;;;;;5057688;28;20024;-81
2022/12/25 05:18:31;;;;;;;38.88;7.70;;;6.90;99.90;;;;;;5076818;28;20020;-82
2022/12/25 05:20:58;;;;;;;47.10;7.68;;;6.90;99.90;;;;;;5074693;28;20024;-82
2022/12/25 05:23:23;;;;;;;35.67;7.93;;;6.90;99.90;;;;;;5072748;28;20055;-82
2022/12/25 05:25:49;;;;;;;38.00;7.75;;;7.00;99.90;;;;;;5076202;28;20585;-81
2022/12/25 05:28:15;;;;;;;32.92;7.47;;;7.10;99.90;;;;;;5072936;28;20436;-81
2022/12/25 05:30:40;;;;;;;29.45;8.05;;;7.10;99.90;;;;;;5070840;28;20016;-81
2022/12/25 05:33:06;;;;;;;29.70;7.53;;;7.30;99.90;;;;;;5074404;28;20039;-82
2022/12/25 05:35:38;;;;;;;32.20;8.85;;;7.30;99.90;;;;;;5073091;28;20035;-80
2022/12/25 05:38:05;;;;;;;29.65;6.43;;;7.30;99.90;;;;;;5074101;28;20106;-81
2022/12/25 05:40:32;;;;;;;22.90;5.93;;;7.20;99.90;;;;;;5071075;28;20028;-82
2022/12/25 05:42:57;;;;;;;21.13;5.57;;;7.20;99.90;;;;;;5084323;28;20127;-81
2022/12/25 05:45:23;;;;;;;24.90;6.97;;;7.20;99.90;;;;;;5073457;28;20108;-80
2022/12/25 05:47:49;;;;;;;22.73;5.60;;;7.20;99.90;;;;;;5080644;28;20028;-81
2022/12/25 05:50:14;;;;;;;29.40;6.07;;;7.10;99.90;;;;;;5073882;28;20013;-81
2022/12/25 05:52:40;;;;;;;17.17;5.43;;;7.10;99.90;;;;;;5069932;28;20489;-81
2022/12/25 05:55:06;;;;;;;26.13;6.57;;;7.10;99.90;;;;;;5078571;28;20115;-81
2022/12/25 05:57:31;;;;;;;23.23;7.25;;;7.10;99.90;;;;;;5070404;28;20032;-81
2022/12/25 05:59:58;;;;;;;26.38;5.78;;;7.10;99.90;;;;;;5067185;28;20262;-81
2022/12/25 06:02:24;;;;;;;28.33;6.45;;;7.10;99.90;;;;;;5071262;28;20040;-83
2022/12/25 06:04:49;;;;;;;37.58;6.85;;;7.20;99.90;;;;;;5073664;28;20029;-81
2022/12/25 06:07:15;;;;;;;28.00;6.85;;;7.30;99.90;;;;;;5073534;28;20031;-81
2022/12/25 06:09:41;;;;;;;27.85;7.97;;;7.40;99.90;;;;;;5065799;28;20023;-81
2022/12/25 06:12:09;;;;;;;30.20;7.40;;;7.50;99.90;;;;;;5072855;28;20043;-80
2022/12/25 06:14:35;;;;;;;32.22;7.82;;;7.50;99.90;;;;;;5072225;28;20024;-81
2022/12/25 06:17:01;;;;;;;34.70;7.30;;;7.50;99.90;;;;;;5073952;28;20527;-81
2022/12/25 06:19:29;;;;;;;29.25;8.75;;;7.50;99.90;;;;;;5074978;28;20017;-81
2022/12/25 06:21:55;;;;;;;19.33;6.50;;;7.50;99.90;;;;;;5075145;28;20047;-81
2022/12/25 06:24:22;;;;;;;30.52;6.47;;;7.50;99.90;;;;;;5075976;28;20028;-82
2022/12/25 06:26:48;;;;;;;18.98;5.43;;;7.50;99.90;;;;;;5077243;28;20028;-81
2022/12/25 06:29:13;;;;;;;24.33;6.13;;;7.60;99.90;;;;;;5077329;28;20051;-82
2022/12/25 06:31:39;;;;;;;18.05;5.28;;;7.50;99.90;;;;;;5075966;28;20055;-81
2022/12/25 06:34:05;;;;;;;14.55;4.88;;;7.50;99.90;;;;;;5073375;28;20458;-81
2022/12/25 06:36:30;;;;;;;23.85;6.15;;;7.50;99.90;;;;;;5075212;28;20082;-81
2022/12/25 06:39:00;;;;;;;20.48;5.32;;;7.40;99.90;;;;;;5074553;28;20408;-81
2022/12/25 06:41:27;;;;;;;17.48;5.00;;;7.40;99.90;;;;;;5075595;28;20478;-81
2022/12/25 06:43:55;;;;;;;31.02;6.65;;;7.40;99.90;;;;;;5069377;28;20060;-81
2022/12/25 06:46:23;;;;;;;26.85;5.72;;;7.40;99.90;;;;;;5078413;28;20093;-82
2022/12/25 06:48:49;;;;;;;11.00;4.18;;;7.40;99.90;;;;;;5073078;28;20077;-82
2022/12/25 06:51:19;;;;;;;22.80;6.20;;;7.40;99.90;;;;;;5075164;28;20024;-81
2022/12/25 06:53:47;;;;;;;14.90;5.50;;;7.40;99.90;;;;;;5069447;28;20023;-81
2022/12/25 06:56:15;;;;;;;25.38;6.28;;;7.30;99.90;;;;;;5073855;28;20305;-81
2022/12/25 06:58:46;;;;;;;30.42;7.85;;;7.40;99.90;;;;;;5072063;28;20404;-81
2022/12/25 07:01:19;;;;;;;25.55;5.97;;;7.30;99.90;;;;;;5072426;28;20012;-81
2022/12/25 07:03:47;;;;;;;14.43;5.20;;;7.30;99.90;;;;;;5083217;28;20106;-81
2022/12/25 07:06:13;;;;;;;27.40;7.03;;;7.30;99.90;;;;;;5075658;28;20108;-80
2022/12/25 07:08:39;;;;;;;29.80;7.18;;;7.30;99.90;;;;;;5078191;28;20086;-81
2022/12/25 07:11:04;;;;;;;36.63;6.78;;;7.30;99.90;;;;;;5076095;28;20424;-81
2022/12/25 07:13:30;;;;;;;29.48;6.70;;;7.30;99.90;;;;;;5073745;28;20024;-81
2022/12/25 07:15:57;;;;;;;25.17;6.00;;;7.40;99.90;;;;;;5076446;28;20211;-80
2022/12/25 07:18:23;;;;;;;32.22;7.55;;;7.50;99.90;;;;;;5072663;28;20067;-81
2022/12/25 07:20:49;;;;;;;24.13;5.53;;;7.60;99.90;;;;;;5077077;28;20380;-81
2022/12/25 07:23:14;;;;;;;27.33;7.63;;;7.70;99.90;;;;;;5076597;28;20106;-81
2022/12/25 07:25:40;;;;;;;53.95;8.38;;;7.70;99.90;;;;;;5083858;28;20039;-81
2022/12/25 07:28:05;;;;;;;37.05;6.47;;;7.90;99.90;;;;;;5079775;28;20028;-80
2022/12/25 07:30:31;;;;;;;34.97;7.00;;;8.10;99.90;;;;;;5078512;28;20012;-82
2022/12/25 07:32:59;;;;;;;40.53;7.82;;;8.20;99.90;;;;;;5075373;28;20024;-81
2022/12/25 07:35:25;;;;;;;33.72;5.75;;;8.30;99.90;;;;;;5074358;28;20024;-81
2022/12/25 07:37:50;;;;;;;30.42;6.03;;;8.40;99.90;;;;;;5074648;28;20124;-81
2022/12/25 07:40:16;;;;;;;22.35;5.72;;;8.40;99.90;;;;;;5071779;28;20084;-80
2022/12/25 07:42:42;;;;;;;34.00;6.75;;;8.40;99.90;;;;;;5073834;28;20024;-81
2022/12/25 07:45:08;;;;;;;31.85;5.65;;;8.40;99.90;;;;;;5073757;28;20088;-81
2022/12/25 07:47:33;;;;;;;41.15;6.70;;;8.50;99.90;;;;;;5071906;28;20035;-81
2022/12/25 07:49:59;;;;;;;40.92;7.05;;;8.50;99.90;;;;;;5074368;28;20025;-81
2022/12/25 07:52:24;;;;;;;34.67;6.97;;;8.50;99.90;;;;;;5072594;28;20027;-81
2022/12/25 07:54:50;;;;;;;27.08;7.00;;;8.50;99.90;;;;;;5075560;28;20478;-81
2022/12/25 07:57:15;;;;;;;28.48;6.00;;;8.50;99.90;;;;;;5070633;28;20543;-81
2022/12/25 07:59:41;;;;;;;31.75;7.15;;;8.50;99.90;;;;;;5071893;28;20108;-81
2022/12/25 08:02:08;;;;;;;34.28;7.38;;;8.40;99.90;;;;;;5075134;28;20036;-81
2022/12/25 08:04:33;;;;;;;31.48;6.25;;;8.40;99.90;;;;;;5074129;28;20469;-81
2022/12/25 08:06:59;;;;;;;37.28;5.90;;;8.30;99.90;;;;;;5073349;28;20025;-81
2022/12/25 08:09:24;;;;;;;41.00;6.95;;;8.30;99.90;;;;;;5071468;28;20107;-81
2022/12/25 08:11:50;;;;;;;36.65;7.05;;;8.30;99.90;;;;;;5072988;28;20025;-82
2022/12/25 08:14:15;;;;;;;28.08;6.22;;;8.30;99.90;;;;;;5072494;28;20101;-82
2022/12/25 08:16:41;;;;;;;33.47;5.97;;;8.20;99.90;;;;;;5073125;28;20027;-81
2022/12/25 08:19:08;;;;;;;28.27;7.63;;;8.30;99.90;;;;;;5073223;28;20024;-82
2022/12/25 08:21:33;;;;;;;16.95;4.47;;;8.30;99.90;;;;;;5070346;28;20040;-81
2022/12/25 08:23:59;;;;;;;24.88;5.72;;;8.40;99.90;;;;;;5073217;28;20304;-81
2022/12/25 08:26:24;;;;;;;29.70;6.35;;;8.50;99.90;;;;;;5072693;28;20020;-80
2022/12/25 08:28:50;;;;;;;17.42;4.78;;;8.60;99.90;;;;;;5073110;28;20055;-82
2022/12/25 08:31:25;;;;;;;27.77;6.07;;;8.70;99.90;;;;;;5072075;28;20358;-81
2022/12/25 08:33:53;;;;;;;17.23;4.85;;;8.70;99.90;;;;;;5068916;28;20029;-81
2022/12/25 08:36:19;;;;;;;32.40;5.88;;;8.70;99.90;;;;;;5075501;28;20060;-81
2022/12/25 08:38:45;;;;;;;26.65;6.43;;;8.70;99.90;;;;;;5078151;28;20059;-80
2022/12/25 08:41:14;;;;;;;27.45;5.13;;;8.70;99.90;;;;;;5080709;28;20029;-81
2022/12/25 08:43:39;;;;;;;27.50;5.78;;;8.70;99.90;;;;;;5077740;28;20020;-80
2022/12/25 08:46:06;;;;;;;29.80;5.70;;;8.70;99.90;;;;;;5075291;28;20027;-81
2022/12/25 08:48:31;;;;;;;26.45;6.45;;;8.70;99.90;;;;;;5075511;28;20461;-81
2022/12/25 08:50:58;;;;;;;17.65;4.88;;;8.70;99.90;;;;;;5074114;28;20316;-80
2022/12/25 08:53:24;;;;;;;23.65;6.32;;;8.70;99.90;;;;;;5074621;28;20028;-81
2022/12/25 08:55:56;;;;;;;29.05;6.60;;;8.70;99.90;;;;;;5074351;28;20119;-81
2022/12/25 08:58:22;;;;;;;29.20;6.13;;;8.70;99.90;;;;;;5076366;28;20454;-81
2022/12/25 09:00:48;;;;;;;24.20;5.75;;;8.70;99.90;;;;;;5072714;28;20028;-81
2022/12/25 09:03:13;;;;;;;30.25;6.15;;;8.70;99.90;;;;;;5071712;28;20376;-81
2022/12/25 09:05:39;;;;;;;29.90;6.70;;;8.70;99.90;;;;;;5072080;28;20424;-80
2022/12/25 09:08:05;;;;;;;25.30;7.68;;;8.70;99.90;;;;;;5072713;28;20024;-82
2022/12/25 09:10:30;;;;;;;22.95;5.75;;;8.70;99.90;;;;;;5072237;28;20029;-81
2022/12/25 09:12:56;;;;;;;28.00;6.43;;;8.70;99.90;;;;;;5076471;28;20418;-81
2022/12/25 09:15:21;;;;;;;20.17;6.15;;;8.70;99.90;;;;;;5069601;28;20032;-82
2022/12/25 09:17:48;;;;;;;26.63;5.72;;;8.70;99.90;;;;;;5070758;28;20025;-79
2022/12/25 09:20:13;;;;;;;22.95;5.38;;;8.70;99.90;;;;;;5069754;28;20063;-80
2022/12/25 09:22:39;;;;;;;22.13;5.05;;;8.70;99.90;;;;;;5073205;28;20051;-81
2022/12/25 09:25:05;;;;;;;19.38;6.40;;;8.70;99.90;;;;;;5075632;28;20024;-81
2022/12/25 09:27:30;;;;;;;25.83;5.88;;;8.70;99.90;;;;;;5075206;28;20024;-83
2022/12/25 09:29:56;;;;;;;30.60;6.80;;;8.70;99.90;;;;;;5079568;28;20051;-81
2022/12/25 09:32:24;;;;;;;19.00;5.10;;;8.80;99.90;;;;;;5079140;28;20016;-81
2022/12/25 09:34:50;;;;;;;18.83;5.90;;;8.80;99.90;;;;;;5072683;28;20471;-82
2022/12/25 09:37:16;;;;;;;23.00;6.20;;;8.70;99.90;;;;;;5076735;28;20059;-81
2022/12/25 09:39:42;;;;;;;21.98;5.53;;;8.70;99.90;;;;;;5058232;28;20239;-81
2022/12/25 09:42:21;;;;;;;27.63;6.28;;;8.70;99.90;;;;;;5072677;28;20047;-82
2022/12/25 09:44:52;;;;;;;25.92;5.45;;;8.70;99.90;;;;;;5068538;28;20036;-82
2022/12/25 09:47:24;;;;;;;25.58;5.15;;;8.70;99.90;;;;;;5066910;28;20076;-81
2022/12/25 09:50:18;;;;;;;13.05;5.45;;;8.60;99.90;;;;;;5072028;28;20024;-81
2022/12/25 09:53:06;;;;;;;28.20;6.70;;;8.60;99.90;;;;;;5073097;28;20032;-81
2022/12/25 09:55:37;;;;;;;19.27;5.57;;;8.60;99.90;;;;;;5073953;28;20066;-82
2022/12/25 09:58:11;;;;;;;24.13;5.63;;;8.50;99.90;;;;;;5075542;28;20048;-82
2022/12/25 10:00:45;;;;;;;15.40;5.70;;;8.60;99.90;;;;;;5074027;28;20462;-81
2022/12/25 10:03:48;;;;;;;13.75;4.82;;;8.60;99.90;;;;;;5072513;28;20565;-81
2022/12/25 10:06:19;;;;;;;22.42;7.68;;;8.60;99.90;;;;;;5074559;28;20044;-82
2022/12/25 10:08:46;;;;;;;22.52;8.73;;;8.60;99.90;;;;;;5076126;28;20582;-82
2022/12/25 10:11:15;;;;;;;19.13;7.63;;;8.70;99.90;;;;;;5073508;28;20462;-81
2022/12/25 10:14:06;;;;;;;28.40;7.13;;;8.70;99.90;;;;;;5075835;28;20318;-81
2022/12/25 10:16:38;;;;;;;19.15;6.30;;;8.70;99.90;;;;;;5074801;28;20043;-81
2022/12/25 10:19:28;;;;;;;30.38;7.45;;;8.70;99.90;;;;;;5072222;28;20020;-81
2022/12/25 10:22:00;;;;;;;24.17;6.35;;;8.70;99.90;;;;;;5072107;28;20063;-82
2022/12/25 10:24:35;;;;;;;34.03;7.70;;;8.70;99.90;;;;;;5074463;28;20024;-82
2022/12/25 10:27:07;;;;;;;29.23;9.73;;;8.70;99.90;;;;;;5073177;28;20047;-82
2022/12/25 10:29:34;;;;;;;20.25;7.28;;;8.70;99.90;;;;;;5072448;28;20267;-81
2022/12/25 10:32:00;;;;;;;26.58;6.63;;;8.70;99.90;;;;;;5069797;28;20129;-82
2022/12/25 10:34:28;;;;;;;26.40;5.00;;;8.70;99.90;;;;;;5080357;28;20472;-81
2022/12/25 10:36:58;;;;;;;17.83;5.35;;;8.70;99.90;;;;;;5059307;28;20124;-80
2022/12/25 10:39:25;;;;;;;13.70;5.03;;;8.70;99.90;;;;;;5065657;28;20124;-81
2022/12/25 10:42:28;;;;;;;22.85;4.60;;;8.70;99.90;;;;;;5065228;28;20366;-82
2022/12/25 10:45:01;;;;;;;14.30;4.10;;;8.70;99.90;;;;;;5075514;28;20055;-81
2022/12/25 10:47:31;;;;;;;23.17;5.93;;;8.80;99.90;;;;;;5057904;28;20066;-81
2022/12/25 10:49:58;;;;;;;14.77;5.15;;;8.80;99.90;;;;;;5077665;28;20036;-81
2022/12/25 10:52:26;;;;;;;18.27;4.43;;;8.80;99.90;;;;;;5069000;28;20485;-81
2022/12/25 10:54:53;;;;;;;16.08;3.97;;;8.80;99.90;;;;;;5079648;28;20491;-81
2022/12/25 10:57:24;;;;;;;20.98;5.00;;;9.00;99.90;;;;;;5071126;28;20036;-83
2022/12/25 10:59:54;;;;;;;15.82;3.42;;;9.00;99.90;;;;;;5066461;28;20123;-81
2022/12/25 11:02:49;;;;;;;11.70;3.25;;;9.10;99.90;;;;;;5067587;28;20111;-81
2022/12/25 11:05:41;;;;;;;12.75;3.28;;;9.10;99.90;;;;;;5069125;28;20371;-82
2022/12/25 11:08:20;;;;;;;13.82;4.25;;;9.10;99.90;;;;;;5065802;28;20443;-81
2022/12/25 11:10:52;;;;;;;15.20;4.18;;;9.10;99.90;;;;;;5078195;28;20020;-81
2022/12/25 11:13:23;;;;;;;13.38;3.92;;;9.10;99.90;;;;;;5072920;28;20008;-82
2022/12/25 11:15:50;;;;;;;11.73;4.40;;;9.00;99.90;;;;;;5069803;28;20383;-81
2022/12/25 11:18:27;;;;;;;16.05;3.65;;;9.00;99.90;;;;;;5070715;28;20020;-82
2022/12/25 11:20:59;;;;;;;12.13;3.75;;;9.10;99.90;;;;;;5075041;28;20690;-81
2022/12/25 11:23:26;;;;;;;15.30;3.78;;;9.00;99.90;;;;;;5071994;28;20089;-81
2022/12/25 11:25:58;;;;;;;13.77;3.90;;;9.10;99.90;;;;;;5071493;28;20025;-82
2022/12/25 11:28:26;;;;;;;14.23;4.20;;;9.10;99.90;;;;;;5077484;28;20028;-82
2022/12/25 11:31:15;;;;;;;14.18;4.88;;;9.10;99.90;;;;;;5067081;28;20024;-81
2022/12/25 11:34:04;;;;;;;26.20;9.88;;;9.10;99.90;;;;;;5081728;28;20101;-81
2022/12/25 11:36:45;;;;;;;27.70;9.63;;;9.00;99.90;;;;;;5076776;28;20426;-81
2022/12/25 11:39:27;;;;;;;21.27;8.32;;;9.00;99.90;;;;;;5074144;28;20056;-82
2022/12/25 11:42:01;;;;;;;17.92;6.85;;;9.00;99.90;;;;;;5039826;28;20088;-82
2022/12/25 11:44:37;;;;;;;22.67;6.65;;;9.00;99.90;;;;;;5066430;28;20036;-81
2022/12/25 11:47:32;;;;;;;15.55;5.82;;;9.00;99.90;;;;;;5071573;28;20019;-82
2022/12/25 11:50:19;;;;;;;13.93;5.75;;;9.00;99.90;;;;;;5076778;28;20028;-81
2022/12/25 11:52:46;;;;;;;16.42;5.57;;;9.00;99.90;;;;;;5071724;28;20369;-82
2022/12/25 11:55:18;;;;;;;19.73;7.00;;;9.00;99.90;;;;;;5069429;28;20020;-81
2022/12/25 11:57:49;;;;;;;22.77;7.68;;;9.00;99.90;;;;;;5068617;28;20074;-82
2022/12/25 12:00:15;;;;;;;21.15;8.27;;;9.00;99.90;;;;;;5074450;28;20028;-81
2022/12/25 12:02:58;;;;;;;21.50;9.85;;;8.90;99.90;;;;;;5073389;28;20046;-81
2022/12/25 12:05:30;;;;;;;42.78;13.70;;;8.90;99.90;;;;;;5069071;28;20019;-82
2022/12/25 12:08:01;;;;;;;22.30;8.57;;;9.00;99.90;;;;;;5069644;28;20032;-82
2022/12/25 12:10:41;;;;;;;16.85;5.45;;;9.00;99.90;;;;;;5075125;28;20027;-82
2022/12/25 12:13:09;;;;;;;21.55;5.78;;;9.00;99.90;;;;;;5073866;28;20027;-81
2022/12/25 12:15:43;;;;;;;25.23;10.07;;;9.00;99.90;;;;;;5066716;28;20012;-82
2022/12/25 12:18:29;;;;;;;29.00;11.85;;;9.00;99.90;;;;;;5056771;28;20368;-81
2022/12/25 12:21:03;;;;;;;16.00;6.20;;;9.00;99.90;;;;;;5070246;28;20031;-81
2022/12/25 12:24:19;;;;;;;20.90;6.80;;;9.00;99.90;;;;;;5066687;28;20108;-82
2022/12/25 12:26:58;;;;;;;17.33;6.97;;;9.10;99.90;;;;;;5013442;28;20077;-81
2022/12/25 12:29:32;;;;;;;15.65;6.03;;;9.10;99.90;;;;;;5066559;28;20032;-81
2022/12/25 12:32:03;;;;;;;25.20;7.57;;;9.10;99.90;;;;;;5070055;28;20036;-81
2022/12/25 12:34:46;;;;;;;22.58;8.27;;;9.10;99.90;;;;;;5075408;28;20024;-81
2022/12/25 12:37:26;;;;;;;18.33;6.90;;;9.00;99.90;;;;;;5080498;28;20508;-81
2022/12/25 12:39:54;;;;;;;16.98;5.85;;;9.00;99.90;;;;;;5061537;28;20097;-81
2022/12/25 12:42:30;;;;;;;28.75;9.70;;;9.00;99.90;;;;;;5065052;28;20043;-81
2022/12/25 12:45:06;;;;;;;17.55;7.35;;;9.00;99.90;;;;;;5065555;28;20124;-81
2022/12/25 12:47:41;;;;;;;17.02;6.75;;;9.00;99.90;;;;;;5066290;28;20024;-81
2022/12/25 12:50:25;;;;;;;;;;;9.00;99.90;;;;;;5068175;28;20021;-81
2022/12/25 12:52:50;;;;;;;18.40;5.07;;;9.00;99.90;;;;;;5068706;28;19908;-81
2022/12/25 12:55:27;;;;;;;13.65;4.90;;;9.00;99.90;;;;;;5068971;28;20032;-81
2022/12/25 12:57:59;;;;;;;14.68;4.88;;;9.00;99.90;;;;;;5059822;28;20596;-81
2022/12/25 13:00:28;;;;;;;9.27;4.15;;;9.00;99.90;;;;;;5065541;28;20020;-81
2022/12/25 13:03:24;;;;;;;21.77;4.85;;;8.90;99.90;;;;;;5068841;28;20392;-81
2022/12/25 13:06:01;;;;;;;11.60;3.58;;;9.00;99.90;;;;;;5067902;28;20028;-81
2022/12/25 13:08:41;;;;;;;17.88;5.07;;;9.00;99.90;;;;;;5064220;28;20485;-80
2022/12/25 13:11:26;;;;;;;12.40;3.97;;;9.00;99.90;;;;;;5079855;28;20039;-81
2022/12/25 13:13:54;;;;;;;21.25;4.30;;;9.00;99.90;;;;;;5068546;28;20025;-80
2022/12/25 13:16:25;;;;;;;20.27;3.88;;;9.10;99.90;;;;;;5072532;28;20036;-80
2022/12/25 13:18:53;;;;;;;15.98;5.13;;;9.10;99.90;;;;;;5068108;28;20032;-81
2022/12/25 13:21:22;;;;;;;16.38;4.07;;;9.20;99.90;;;;;;5071797;28;20414;-81
2022/12/25 13:23:56;;;;;;;9.48;3.78;;;9.20;99.90;;;;;;5061680;28;20032;-81
2022/12/25 13:26:22;;;;;;;13.90;3.35;;;9.20;99.90;;;;;;5069373;28;20055;-81
2022/12/25 13:28:48;;;;;;;18.15;4.13;;;9.20;99.90;;;;;;5066838;28;20132;-81
2022/12/25 13:31:29;;;;;;;13.00;3.85;;;9.20;99.90;;;;;;5067022;28;20024;-81
2022/12/25 13:34:39;;;;;;;13.60;4.35;;;9.20;99.90;;;;;;5073532;28;20115;-82
2022/12/25 13:37:17;;;;;;;17.50;4.20;;;9.20;99.90;;;;;;5001548;28;20426;-83
2022/12/25 13:40:05;;;;;;;25.42;4.53;;;9.10;99.90;;;;;;5005471;28;20054;-81
2022/12/25 13:42:36;;;;;;;14.90;3.58;;;9.20;99.90;;;;;;5049281;28;20053;-81
2022/12/25 13:45:26;;;;;;;15.80;4.10;;;9.20;99.90;;;;;;5066204;28;20051;-82
2022/12/25 13:47:52;;;;;;;16.48;3.88;;;9.20;99.90;;;;;;5049350;28;20384;-81
2022/12/25 13:50:28;;;;;;;23.92;3.92;;;9.20;99.90;;;;;;5080460;28;20035;-82
2022/12/25 13:52:56;;;;;;;19.92;4.35;;;9.20;99.90;;;;;;5049795;28;20447;-82
2022/12/25 13:55:24;;;;;;;16.75;4.13;;;9.20;99.90;;;;;;5072801;28;20404;-82
2022/12/25 13:57:53;;;;;;;14.98;4.18;;;9.20;99.90;;;;;;5064252;28;20040;-82
2022/12/25 14:00:35;;;;;;;18.70;3.88;;;9.10;99.90;;;;;;5066757;28;20036;-82
2022/12/25 14:03:03;;;;;;;15.98;4.55;;;9.10;99.90;;;;;;5066692;28;20046;-82
2022/12/25 14:05:35;;;;;;;15.77;4.55;;;9.10;99.90;;;;;;5063747;28;20021;-82
2022/12/25 14:08:03;;;;;;;15.23;4.32;;;9.10;99.90;;;;;;5067909;28;20028;-82
2022/12/25 14:10:36;;;;;;;15.65;3.97;;;9.10;99.90;;;;;;5056463;28;20408;-82
2022/12/25 14:13:06;;;;;;;20.00;4.07;;;9.10;99.90;;;;;;5070164;28;20033;-81
2022/12/25 14:15:33;;;;;;;19.15;4.13;;;9.10;99.90;;;;;;5080985;28;20115;-82
2022/12/25 14:17:59;;;;;;;17.10;4.35;;;9.10;99.90;;;;;;5072541;28;20107;-82
2022/12/25 14:20:38;;;;;;;11.38;3.88;;;9.10;99.90;;;;;;5071183;28;20047;-82
2022/12/25 14:23:06;;;;;;;22.85;4.35;;;9.10;99.90;;;;;;5071594;28;20123;-82
2022/12/25 14:25:40;;;;;;;16.65;4.50;;;9.10;99.90;;;;;;5072294;28;20028;-82
2022/12/25 14:28:15;;;;;;;14.85;4.40;;;9.10;99.90;;;;;;5065850;28;20043;-82
2022/12/25 14:30:41;;;;;;;20.55;4.68;;;9.10;99.90;;;;;;5061451;28;20033;-82
2022/12/25 14:33:14;;;;;;;12.45;3.65;;;9.10;99.90;;;;;;5069541;28;20458;-83
2022/12/25 14:35:41;;;;;;;16.40;3.85;;;9.10;99.90;;;;;;5065233;28;20020;-82
2022/12/25 14:38:14;;;;;;;20.25;5.13;;;9.10;99.90;;;;;;5063399;28;20571;-81
2022/12/25 14:40:44;;;;;;;8.43;3.70;;;9.00;99.90;;;;;;5064390;28;20025;-82
2022/12/25 14:43:25;;;;;;;17.85;5.30;;;9.10;99.90;;;;;;5075167;28;20104;-81
2022/12/25 14:46:01;;;;;;;20.67;4.15;;;9.10;99.90;;;;;;5078405;28;20067;-82